TAF KHND
KHND 081731Z 0818/0918 19007KT P6SM SCT060 SCT100 FM082100 21009KT P6SM FEW060 SCT250 FM090200 17009KT P6SM SCT250 FM091400 21015G25KT P6SM VCSH FEW050 BKN100=
METAR KHND
WC KHND
WS KHND
WV KHND